<?xml version="1.0" encoding="UTF-8" standalone="no" ?>
<gpx xmlns="http://www.topografix.com/GPX/1/1" xmlns:xsi="http://www.w3.org/2001/XMLSchema-instance" xsi:schemaLocation="http://www.topografix.com/GPX/1/1 http://www.topografix.com/GPX/1/1/gpx.xsd" version="1.1" creator="VisuGPX - https://www.visugpx.com">
  <metadata>
    <name>val d\'Astier,St Ferreol, Pradels,val d\'Astier</name>
    <desc><![CDATA[Randonnée en forme de \"huit\" pour bon marcheur
5h50 avec 50\' de pique-nique avant retour à 464m d\'altitude]]></desc>
  </metadata>
  <trk>
    <name><![CDATA[8 févr. 2015 10:20:11]]></name>
    <cmt><![CDATA[8 févr. 2015 10:20:11]]></cmt>
    <trkseg>
      <trkpt lat="43.22746" lon="6.51457">
        <ele>26</ele>
        <time>2015-02-08T09:21:09Z</time>
      </trkpt>
      <trkpt lat="43.22737" lon="6.51423">
        <ele>23</ele>
        <time>2015-02-08T09:21:36Z</time>
      </trkpt>
      <trkpt lat="43.22719" lon="6.514">
        <ele>27</ele>
        <time>2015-02-08T09:22:07Z</time>
      </trkpt>
      <trkpt lat="43.22706" lon="6.51371">
        <ele>25</ele>
        <time>2015-02-08T09:23:00Z</time>
      </trkpt>
      <trkpt lat="43.22694" lon="6.51344">
        <ele>22</ele>
        <time>2015-02-08T09:23:36Z</time>
      </trkpt>
      <trkpt lat="43.22654" lon="6.51309">
        <ele>23</ele>
        <time>2015-02-08T09:24:22Z</time>
      </trkpt>
      <trkpt lat="43.22634" lon="6.51288">
        <ele>22</ele>
        <time>2015-02-08T09:24:58Z</time>
      </trkpt>
      <trkpt lat="43.22612" lon="6.51298">
        <ele>19</ele>
        <time>2015-02-08T09:26:53Z</time>
      </trkpt>
      <trkpt lat="43.22591" lon="6.51309">
        <ele>32</ele>
        <time>2015-02-08T09:27:47Z</time>
      </trkpt>
      <trkpt lat="43.22571" lon="6.51328">
        <ele>26</ele>
        <time>2015-02-08T09:28:37Z</time>
      </trkpt>
      <trkpt lat="43.22554" lon="6.51348">
        <ele>24</ele>
        <time>2015-02-08T09:28:57Z</time>
      </trkpt>
      <trkpt lat="43.22533" lon="6.5136">
        <ele>26</ele>
        <time>2015-02-08T09:29:36Z</time>
      </trkpt>
      <trkpt lat="43.22512" lon="6.51373">
        <ele>26</ele>
        <time>2015-02-08T09:30:16Z</time>
      </trkpt>
      <trkpt lat="43.2249" lon="6.51381">
        <ele>27</ele>
        <time>2015-02-08T09:30:36Z</time>
      </trkpt>
      <trkpt lat="43.22445" lon="6.51399">
        <ele>27</ele>
        <time>2015-02-08T09:31:23Z</time>
      </trkpt>
      <trkpt lat="43.22399" lon="6.51414">
        <ele>27</ele>
        <time>2015-02-08T09:32:28Z</time>
      </trkpt>
      <trkpt lat="43.22353" lon="6.51411">
        <ele>30</ele>
        <time>2015-02-08T09:33:23Z</time>
      </trkpt>
      <trkpt lat="43.22339" lon="6.51435">
        <ele>32</ele>
        <time>2015-02-08T09:33:46Z</time>
      </trkpt>
      <trkpt lat="43.22321" lon="6.51456">
        <ele>32</ele>
        <time>2015-02-08T09:34:17Z</time>
      </trkpt>
      <trkpt lat="43.22312" lon="6.51465">
        <ele>34</ele>
        <time>2015-02-08T09:34:35Z</time>
      </trkpt>
      <trkpt lat="43.22291" lon="6.51477">
        <ele>37</ele>
        <time>2015-02-08T09:35:07Z</time>
      </trkpt>
      <trkpt lat="43.22269" lon="6.51484">
        <ele>39</ele>
        <time>2015-02-08T09:35:39Z</time>
      </trkpt>
      <trkpt lat="43.22224" lon="6.51498">
        <ele>44</ele>
        <time>2015-02-08T09:36:25Z</time>
      </trkpt>
      <trkpt lat="43.2218" lon="6.5152">
        <ele>46</ele>
        <time>2015-02-08T09:37:06Z</time>
      </trkpt>
      <trkpt lat="43.22139" lon="6.51551">
        <ele>49</ele>
        <time>2015-02-08T09:37:57Z</time>
      </trkpt>
      <trkpt lat="43.22116" lon="6.51559">
        <ele>50</ele>
        <time>2015-02-08T09:38:26Z</time>
      </trkpt>
      <trkpt lat="43.22075" lon="6.51586">
        <ele>55</ele>
        <time>2015-02-08T09:39:29Z</time>
      </trkpt>
      <trkpt lat="43.22054" lon="6.51598">
        <ele>57</ele>
        <time>2015-02-08T09:40:11Z</time>
      </trkpt>
      <trkpt lat="43.22031" lon="6.51598">
        <ele>59</ele>
        <time>2015-02-08T09:40:47Z</time>
      </trkpt>
      <trkpt lat="43.2201" lon="6.51606">
        <ele>62</ele>
        <time>2015-02-08T09:41:11Z</time>
      </trkpt>
      <trkpt lat="43.21999" lon="6.51635">
        <ele>64</ele>
        <time>2015-02-08T09:41:37Z</time>
      </trkpt>
      <trkpt lat="43.21991" lon="6.51664">
        <ele>67</ele>
        <time>2015-02-08T09:42:11Z</time>
      </trkpt>
      <trkpt lat="43.21973" lon="6.51684">
        <ele>69</ele>
        <time>2015-02-08T09:42:43Z</time>
      </trkpt>
      <trkpt lat="43.21955" lon="6.51706">
        <ele>98</ele>
        <time>2015-02-08T09:46:02Z</time>
      </trkpt>
      <trkpt lat="43.21942" lon="6.51732">
        <ele>109</ele>
        <time>2015-02-08T09:46:31Z</time>
      </trkpt>
      <trkpt lat="43.21919" lon="6.51739">
        <ele>108</ele>
        <time>2015-02-08T09:47:04Z</time>
      </trkpt>
      <trkpt lat="43.21895" lon="6.51742">
        <ele>110</ele>
        <time>2015-02-08T09:47:33Z</time>
      </trkpt>
      <trkpt lat="43.21852" lon="6.51762">
        <ele>115</ele>
        <time>2015-02-08T09:48:40Z</time>
      </trkpt>
      <trkpt lat="43.21833" lon="6.51778">
        <ele>108</ele>
        <time>2015-02-08T09:51:06Z</time>
      </trkpt>
      <trkpt lat="43.21814" lon="6.51796">
        <ele>129</ele>
        <time>2015-02-08T09:51:36Z</time>
      </trkpt>
      <trkpt lat="43.21797" lon="6.51819">
        <ele>134</ele>
        <time>2015-02-08T09:52:09Z</time>
      </trkpt>
      <trkpt lat="43.2179" lon="6.51882">
        <ele>143</ele>
        <time>2015-02-08T09:53:13Z</time>
      </trkpt>
      <trkpt lat="43.21776" lon="6.51906">
        <ele>144</ele>
        <time>2015-02-08T09:53:40Z</time>
      </trkpt>
      <trkpt lat="43.21756" lon="6.51923">
        <ele>146</ele>
        <time>2015-02-08T09:54:07Z</time>
      </trkpt>
      <trkpt lat="43.21735" lon="6.51938">
        <ele>148</ele>
        <time>2015-02-08T09:54:39Z</time>
      </trkpt>
      <trkpt lat="43.21713" lon="6.51949">
        <ele>151</ele>
        <time>2015-02-08T09:55:31Z</time>
      </trkpt>
      <trkpt lat="43.21692" lon="6.51961">
        <ele>172</ele>
        <time>2015-02-08T09:58:19Z</time>
      </trkpt>
      <trkpt lat="43.21691" lon="6.51992">
        <ele>166</ele>
        <time>2015-02-08T09:58:42Z</time>
      </trkpt>
      <trkpt lat="43.21671" lon="6.52005">
        <ele>179</ele>
        <time>2015-02-08T09:59:52Z</time>
      </trkpt>
      <trkpt lat="43.21635" lon="6.52044">
        <ele>186</ele>
        <time>2015-02-08T10:00:49Z</time>
      </trkpt>
      <trkpt lat="43.21605" lon="6.52093">
        <ele>193</ele>
        <time>2015-02-08T10:01:45Z</time>
      </trkpt>
      <trkpt lat="43.21591" lon="6.52118">
        <ele>194</ele>
        <time>2015-02-08T10:02:16Z</time>
      </trkpt>
      <trkpt lat="43.21576" lon="6.52141">
        <ele>196</ele>
        <time>2015-02-08T10:02:48Z</time>
      </trkpt>
      <trkpt lat="43.21545" lon="6.52188">
        <ele>201</ele>
        <time>2015-02-08T10:03:46Z</time>
      </trkpt>
      <trkpt lat="43.21526" lon="6.52205">
        <ele>203</ele>
        <time>2015-02-08T10:04:18Z</time>
      </trkpt>
      <trkpt lat="43.21513" lon="6.52224">
        <ele>237</ele>
        <time>2015-02-08T10:06:05Z</time>
      </trkpt>
      <trkpt lat="43.21491" lon="6.52235">
        <ele>229</ele>
        <time>2015-02-08T10:09:04Z</time>
      </trkpt>
      <trkpt lat="43.21447" lon="6.52246">
        <ele>233</ele>
        <time>2015-02-08T10:09:51Z</time>
      </trkpt>
      <trkpt lat="43.21427" lon="6.52261">
        <ele>235</ele>
        <time>2015-02-08T10:10:35Z</time>
      </trkpt>
      <trkpt lat="43.21403" lon="6.52267">
        <ele>237</ele>
        <time>2015-02-08T10:11:27Z</time>
      </trkpt>
      <trkpt lat="43.21381" lon="6.52275">
        <ele>239</ele>
        <time>2015-02-08T10:12:02Z</time>
      </trkpt>
      <trkpt lat="43.2136" lon="6.52283">
        <ele>242</ele>
        <time>2015-02-08T10:12:44Z</time>
      </trkpt>
      <trkpt lat="43.21337" lon="6.52283">
        <ele>245</ele>
        <time>2015-02-08T10:13:23Z</time>
      </trkpt>
      <trkpt lat="43.21316" lon="6.52294">
        <ele>246</ele>
        <time>2015-02-08T10:13:49Z</time>
      </trkpt>
      <trkpt lat="43.21274" lon="6.52318">
        <ele>251</ele>
        <time>2015-02-08T10:14:47Z</time>
      </trkpt>
      <trkpt lat="43.21254" lon="6.52333">
        <ele>275</ele>
        <time>2015-02-08T10:19:06Z</time>
      </trkpt>
      <trkpt lat="43.21233" lon="6.52347">
        <ele>283</ele>
        <time>2015-02-08T10:19:35Z</time>
      </trkpt>
      <trkpt lat="43.21209" lon="6.52351">
        <ele>284</ele>
        <time>2015-02-08T10:20:00Z</time>
      </trkpt>
      <trkpt lat="43.21186" lon="6.52351">
        <ele>284</ele>
        <time>2015-02-08T10:20:31Z</time>
      </trkpt>
      <trkpt lat="43.21164" lon="6.52343">
        <ele>286</ele>
        <time>2015-02-08T10:20:57Z</time>
      </trkpt>
      <trkpt lat="43.2114" lon="6.52344">
        <ele>307</ele>
        <time>2015-02-08T10:26:17Z</time>
      </trkpt>
      <trkpt lat="43.21118" lon="6.52356">
        <ele>306</ele>
        <time>2015-02-08T10:27:12Z</time>
      </trkpt>
      <trkpt lat="43.21096" lon="6.52365">
        <ele>308</ele>
        <time>2015-02-08T10:27:35Z</time>
      </trkpt>
      <trkpt lat="43.21052" lon="6.52377">
        <ele>312</ele>
        <time>2015-02-08T10:28:30Z</time>
      </trkpt>
      <trkpt lat="43.21029" lon="6.52381">
        <ele>316</ele>
        <time>2015-02-08T10:29:18Z</time>
      </trkpt>
      <trkpt lat="43.20984" lon="6.52395">
        <ele>319</ele>
        <time>2015-02-08T10:30:16Z</time>
      </trkpt>
      <trkpt lat="43.20961" lon="6.52394">
        <ele>339</ele>
        <time>2015-02-08T10:35:23Z</time>
      </trkpt>
      <trkpt lat="43.20921" lon="6.52359">
        <ele>337</ele>
        <time>2015-02-08T10:36:07Z</time>
      </trkpt>
      <trkpt lat="43.20898" lon="6.52352">
        <ele>338</ele>
        <time>2015-02-08T10:36:30Z</time>
      </trkpt>
      <trkpt lat="43.20855" lon="6.52333">
        <ele>338</ele>
        <time>2015-02-08T10:37:13Z</time>
      </trkpt>
      <trkpt lat="43.20814" lon="6.52302">
        <ele>337</ele>
        <time>2015-02-08T10:37:45Z</time>
      </trkpt>
      <trkpt lat="43.20772" lon="6.52274">
        <ele>336</ele>
        <time>2015-02-08T10:38:23Z</time>
      </trkpt>
      <trkpt lat="43.20725" lon="6.52258">
        <ele>336</ele>
        <time>2015-02-08T10:38:54Z</time>
      </trkpt>
      <trkpt lat="43.20706" lon="6.52241">
        <ele>335</ele>
        <time>2015-02-08T10:39:31Z</time>
      </trkpt>
      <trkpt lat="43.20684" lon="6.52231">
        <ele>333</ele>
        <time>2015-02-08T10:40:38Z</time>
      </trkpt>
      <trkpt lat="43.20662" lon="6.5222">
        <ele>328</ele>
        <time>2015-02-08T10:41:28Z</time>
      </trkpt>
      <trkpt lat="43.2065" lon="6.52194">
        <ele>327</ele>
        <time>2015-02-08T10:41:55Z</time>
      </trkpt>
      <trkpt lat="43.2064" lon="6.52164">
        <ele>330</ele>
        <time>2015-02-08T10:42:26Z</time>
      </trkpt>
      <trkpt lat="43.20627" lon="6.52135">
        <ele>334</ele>
        <time>2015-02-08T10:44:23Z</time>
      </trkpt>
      <trkpt lat="43.20589" lon="6.52094">
        <ele>324</ele>
        <time>2015-02-08T10:44:53Z</time>
      </trkpt>
      <trkpt lat="43.20572" lon="6.52073">
        <ele>324</ele>
        <time>2015-02-08T10:45:10Z</time>
      </trkpt>
      <trkpt lat="43.20546" lon="6.52016">
        <ele>321</ele>
        <time>2015-02-08T10:45:46Z</time>
      </trkpt>
      <trkpt lat="43.20528" lon="6.51998">
        <ele>321</ele>
        <time>2015-02-08T10:46:03Z</time>
      </trkpt>
      <trkpt lat="43.20502" lon="6.5199">
        <ele>320</ele>
        <time>2015-02-08T10:46:32Z</time>
      </trkpt>
      <trkpt lat="43.2046" lon="6.51948">
        <ele>320</ele>
        <time>2015-02-08T10:47:05Z</time>
      </trkpt>
      <trkpt lat="43.20437" lon="6.51945">
        <ele>320</ele>
        <time>2015-02-08T10:47:21Z</time>
      </trkpt>
      <trkpt lat="43.20412" lon="6.51943">
        <ele>320</ele>
        <time>2015-02-08T10:47:34Z</time>
      </trkpt>
      <trkpt lat="43.20363" lon="6.51944">
        <ele>323</ele>
        <time>2015-02-08T10:48:13Z</time>
      </trkpt>
      <trkpt lat="43.20335" lon="6.51941">
        <ele>323</ele>
        <time>2015-02-08T10:49:12Z</time>
      </trkpt>
      <trkpt lat="43.20312" lon="6.51938">
        <ele>323</ele>
        <time>2015-02-08T10:49:29Z</time>
      </trkpt>
      <trkpt lat="43.20294" lon="6.51919">
        <ele>323</ele>
        <time>2015-02-08T10:49:56Z</time>
      </trkpt>
      <trkpt lat="43.20277" lon="6.51899">
        <ele>322</ele>
        <time>2015-02-08T10:50:11Z</time>
      </trkpt>
      <trkpt lat="43.20253" lon="6.51896">
        <ele>322</ele>
        <time>2015-02-08T10:50:31Z</time>
      </trkpt>
      <trkpt lat="43.20206" lon="6.51901">
        <ele>323</ele>
        <time>2015-02-08T10:51:08Z</time>
      </trkpt>
      <trkpt lat="43.20183" lon="6.51909">
        <ele>323</ele>
        <time>2015-02-08T10:51:26Z</time>
      </trkpt>
      <trkpt lat="43.2016" lon="6.51921">
        <ele>318</ele>
        <time>2015-02-08T10:52:30Z</time>
      </trkpt>
      <trkpt lat="43.20137" lon="6.5192">
        <ele>318</ele>
        <time>2015-02-08T10:52:44Z</time>
      </trkpt>
      <trkpt lat="43.20114" lon="6.51921">
        <ele>322</ele>
        <time>2015-02-08T10:53:01Z</time>
      </trkpt>
      <trkpt lat="43.20091" lon="6.51917">
        <ele>323</ele>
        <time>2015-02-08T10:53:36Z</time>
      </trkpt>
      <trkpt lat="43.20088" lon="6.51911">
        <ele>326</ele>
        <time>2015-02-08T10:54:24Z</time>
      </trkpt>
      <trkpt lat="43.20066" lon="6.51912">
        <ele>328</ele>
        <time>2015-02-08T10:55:22Z</time>
      </trkpt>
      <trkpt lat="43.20044" lon="6.51902">
        <ele>327</ele>
        <time>2015-02-08T10:56:03Z</time>
      </trkpt>
      <trkpt lat="43.20006" lon="6.51868">
        <ele>324</ele>
        <time>2015-02-08T10:56:42Z</time>
      </trkpt>
      <trkpt lat="43.19983" lon="6.51859">
        <ele>325</ele>
        <time>2015-02-08T10:56:57Z</time>
      </trkpt>
      <trkpt lat="43.19938" lon="6.51853">
        <ele>324</ele>
        <time>2015-02-08T10:57:32Z</time>
      </trkpt>
      <trkpt lat="43.19927" lon="6.51825">
        <ele>324</ele>
        <time>2015-02-08T10:58:06Z</time>
      </trkpt>
      <trkpt lat="43.19911" lon="6.518">
        <ele>323</ele>
        <time>2015-02-08T10:58:32Z</time>
      </trkpt>
      <trkpt lat="43.19892" lon="6.51742">
        <ele>322</ele>
        <time>2015-02-08T10:59:12Z</time>
      </trkpt>
      <trkpt lat="43.19862" lon="6.5169">
        <ele>321</ele>
        <time>2015-02-08T11:00:01Z</time>
      </trkpt>
      <trkpt lat="43.19847" lon="6.51667">
        <ele>321</ele>
        <time>2015-02-08T11:00:17Z</time>
      </trkpt>
      <trkpt lat="43.19825" lon="6.51609">
        <ele>322</ele>
        <time>2015-02-08T11:00:59Z</time>
      </trkpt>
      <trkpt lat="43.19799" lon="6.51559">
        <ele>324</ele>
        <time>2015-02-08T11:01:34Z</time>
      </trkpt>
      <trkpt lat="43.19774" lon="6.51503">
        <ele>326</ele>
        <time>2015-02-08T11:02:16Z</time>
      </trkpt>
      <trkpt lat="43.19741" lon="6.51459">
        <ele>325</ele>
        <time>2015-02-08T11:02:54Z</time>
      </trkpt>
      <trkpt lat="43.19722" lon="6.51439">
        <ele>324</ele>
        <time>2015-02-08T11:03:12Z</time>
      </trkpt>
      <trkpt lat="43.19714" lon="6.51406">
        <ele>324</ele>
        <time>2015-02-08T11:03:38Z</time>
      </trkpt>
      <trkpt lat="43.19708" lon="6.51377">
        <ele>325</ele>
        <time>2015-02-08T11:03:58Z</time>
      </trkpt>
      <trkpt lat="43.19712" lon="6.51346">
        <ele>326</ele>
        <time>2015-02-08T11:04:21Z</time>
      </trkpt>
      <trkpt lat="43.19702" lon="6.51314">
        <ele>327</ele>
        <time>2015-02-08T11:04:44Z</time>
      </trkpt>
      <trkpt lat="43.19683" lon="6.51255">
        <ele>329</ele>
        <time>2015-02-08T11:05:21Z</time>
      </trkpt>
      <trkpt lat="43.19678" lon="6.51224">
        <ele>349</ele>
        <time>2015-02-08T11:07:20Z</time>
      </trkpt>
      <trkpt lat="43.19669" lon="6.51195">
        <ele>338</ele>
        <time>2015-02-08T11:07:47Z</time>
      </trkpt>
      <trkpt lat="43.19647" lon="6.51186">
        <ele>340</ele>
        <time>2015-02-08T11:08:15Z</time>
      </trkpt>
      <trkpt lat="43.19624" lon="6.51186">
        <ele>339</ele>
        <time>2015-02-08T11:08:40Z</time>
      </trkpt>
      <trkpt lat="43.19601" lon="6.51195">
        <ele>341</ele>
        <time>2015-02-08T11:08:56Z</time>
      </trkpt>
      <trkpt lat="43.19579" lon="6.51193">
        <ele>342</ele>
        <time>2015-02-08T11:09:15Z</time>
      </trkpt>
      <trkpt lat="43.19533" lon="6.51183">
        <ele>341</ele>
        <time>2015-02-08T11:09:54Z</time>
      </trkpt>
      <trkpt lat="43.19488" lon="6.51167">
        <ele>342</ele>
        <time>2015-02-08T11:10:37Z</time>
      </trkpt>
      <trkpt lat="43.19467" lon="6.51151">
        <ele>341</ele>
        <time>2015-02-08T11:11:00Z</time>
      </trkpt>
      <trkpt lat="43.19444" lon="6.51153">
        <ele>342</ele>
        <time>2015-02-08T11:11:37Z</time>
      </trkpt>
      <trkpt lat="43.1942" lon="6.51146">
        <ele>355</ele>
        <time>2015-02-08T11:13:18Z</time>
      </trkpt>
      <trkpt lat="43.19373" lon="6.5114">
        <ele>358</ele>
        <time>2015-02-08T11:14:03Z</time>
      </trkpt>
      <trkpt lat="43.19328" lon="6.51124">
        <ele>356</ele>
        <time>2015-02-08T11:14:34Z</time>
      </trkpt>
      <trkpt lat="43.19305" lon="6.51123">
        <ele>357</ele>
        <time>2015-02-08T11:14:53Z</time>
      </trkpt>
      <trkpt lat="43.19282" lon="6.51118">
        <ele>359</ele>
        <time>2015-02-08T11:15:59Z</time>
      </trkpt>
      <trkpt lat="43.19259" lon="6.51125">
        <ele>365</ele>
        <time>2015-02-08T11:16:25Z</time>
      </trkpt>
      <trkpt lat="43.19236" lon="6.51129">
        <ele>363</ele>
        <time>2015-02-08T11:16:49Z</time>
      </trkpt>
      <trkpt lat="43.19189" lon="6.51127">
        <ele>366</ele>
        <time>2015-02-08T11:17:32Z</time>
      </trkpt>
      <trkpt lat="43.19165" lon="6.51122">
        <ele>366</ele>
        <time>2015-02-08T11:17:59Z</time>
      </trkpt>
      <trkpt lat="43.19143" lon="6.51136">
        <ele>367</ele>
        <time>2015-02-08T11:18:43Z</time>
      </trkpt>
      <trkpt lat="43.19121" lon="6.51147">
        <ele>367</ele>
        <time>2015-02-08T11:19:21Z</time>
      </trkpt>
      <trkpt lat="43.19077" lon="6.51164">
        <ele>368</ele>
        <time>2015-02-08T11:19:58Z</time>
      </trkpt>
      <trkpt lat="43.19054" lon="6.51164">
        <ele>369</ele>
        <time>2015-02-08T11:20:26Z</time>
      </trkpt>
      <trkpt lat="43.19032" lon="6.51157">
        <ele>369</ele>
        <time>2015-02-08T11:20:45Z</time>
      </trkpt>
      <trkpt lat="43.19013" lon="6.51138">
        <ele>375</ele>
        <time>2015-02-08T11:23:11Z</time>
      </trkpt>
      <trkpt lat="43.18994" lon="6.51118">
        <ele>367</ele>
        <time>2015-02-08T11:23:35Z</time>
      </trkpt>
      <trkpt lat="43.18974" lon="6.51102">
        <ele>371</ele>
        <time>2015-02-08T11:23:53Z</time>
      </trkpt>
      <trkpt lat="43.18951" lon="6.5109">
        <ele>370</ele>
        <time>2015-02-08T11:24:09Z</time>
      </trkpt>
      <trkpt lat="43.18929" lon="6.51083">
        <ele>370</ele>
        <time>2015-02-08T11:24:36Z</time>
      </trkpt>
      <trkpt lat="43.18887" lon="6.51052">
        <ele>374</ele>
        <time>2015-02-08T11:25:15Z</time>
      </trkpt>
      <trkpt lat="43.18846" lon="6.5102">
        <ele>373</ele>
        <time>2015-02-08T11:25:51Z</time>
      </trkpt>
      <trkpt lat="43.18829" lon="6.51001">
        <ele>373</ele>
        <time>2015-02-08T11:26:10Z</time>
      </trkpt>
      <trkpt lat="43.18807" lon="6.50988">
        <ele>374</ele>
        <time>2015-02-08T11:26:26Z</time>
      </trkpt>
      <trkpt lat="43.18789" lon="6.50964">
        <ele>376</ele>
        <time>2015-02-08T11:27:20Z</time>
      </trkpt>
      <trkpt lat="43.18782" lon="6.50934">
        <ele>375</ele>
        <time>2015-02-08T11:32:14Z</time>
      </trkpt>
      <trkpt lat="43.18773" lon="6.50904">
        <ele>377</ele>
        <time>2015-02-08T11:32:36Z</time>
      </trkpt>
      <trkpt lat="43.18757" lon="6.50882">
        <ele>381</ele>
        <time>2015-02-08T11:34:01Z</time>
      </trkpt>
      <trkpt lat="43.18739" lon="6.50859">
        <ele>383</ele>
        <time>2015-02-08T11:34:20Z</time>
      </trkpt>
      <trkpt lat="43.18704" lon="6.50814">
        <ele>380</ele>
        <time>2015-02-08T11:34:57Z</time>
      </trkpt>
      <trkpt lat="43.18667" lon="6.50774">
        <ele>382</ele>
        <time>2015-02-08T11:35:30Z</time>
      </trkpt>
      <trkpt lat="43.1865" lon="6.50755">
        <ele>383</ele>
        <time>2015-02-08T11:35:45Z</time>
      </trkpt>
      <trkpt lat="43.18641" lon="6.50726">
        <ele>384</ele>
        <time>2015-02-08T11:36:04Z</time>
      </trkpt>
      <trkpt lat="43.18626" lon="6.50666">
        <ele>387</ele>
        <time>2015-02-08T11:36:53Z</time>
      </trkpt>
      <trkpt lat="43.1861" lon="6.50645">
        <ele>387</ele>
        <time>2015-02-08T11:37:26Z</time>
      </trkpt>
      <trkpt lat="43.18597" lon="6.5062">
        <ele>389</ele>
        <time>2015-02-08T11:37:50Z</time>
      </trkpt>
      <trkpt lat="43.18572" lon="6.50566">
        <ele>391</ele>
        <time>2015-02-08T11:38:46Z</time>
      </trkpt>
      <trkpt lat="43.18563" lon="6.50537">
        <ele>392</ele>
        <time>2015-02-08T11:39:09Z</time>
      </trkpt>
      <trkpt lat="43.18576" lon="6.50512">
        <ele>395</ele>
        <time>2015-02-08T11:40:04Z</time>
      </trkpt>
      <trkpt lat="43.18593" lon="6.50491">
        <ele>397</ele>
        <time>2015-02-08T11:41:00Z</time>
      </trkpt>
      <trkpt lat="43.18609" lon="6.50432">
        <ele>402</ele>
        <time>2015-02-08T11:41:44Z</time>
      </trkpt>
      <trkpt lat="43.18619" lon="6.50402">
        <ele>405</ele>
        <time>2015-02-08T11:42:04Z</time>
      </trkpt>
      <trkpt lat="43.18638" lon="6.50384">
        <ele>406</ele>
        <time>2015-02-08T11:42:46Z</time>
      </trkpt>
      <trkpt lat="43.1865" lon="6.50358">
        <ele>409</ele>
        <time>2015-02-08T11:43:23Z</time>
      </trkpt>
      <trkpt lat="43.18652" lon="6.50326">
        <ele>411</ele>
        <time>2015-02-08T11:43:47Z</time>
      </trkpt>
      <trkpt lat="43.18646" lon="6.50296">
        <ele>426</ele>
        <time>2015-02-08T11:45:35Z</time>
      </trkpt>
      <trkpt lat="43.18636" lon="6.50268">
        <ele>427</ele>
        <time>2015-02-08T11:46:02Z</time>
      </trkpt>
      <trkpt lat="43.18641" lon="6.50236">
        <ele>430</ele>
        <time>2015-02-08T11:46:30Z</time>
      </trkpt>
      <trkpt lat="43.18646" lon="6.50206">
        <ele>432</ele>
        <time>2015-02-08T11:46:51Z</time>
      </trkpt>
      <trkpt lat="43.18637" lon="6.50191">
        <ele>431</ele>
        <time>2015-02-08T11:47:25Z</time>
      </trkpt>
      <trkpt lat="43.18625" lon="6.50165">
        <ele>431</ele>
        <time>2015-02-08T11:48:10Z</time>
      </trkpt>
      <trkpt lat="43.18593" lon="6.50118">
        <ele>433</ele>
        <time>2015-02-08T11:49:01Z</time>
      </trkpt>
      <trkpt lat="43.18572" lon="6.50061">
        <ele>436</ele>
        <time>2015-02-08T11:49:42Z</time>
      </trkpt>
      <trkpt lat="43.18552" lon="6.50046">
        <ele>438</ele>
        <time>2015-02-08T11:50:07Z</time>
      </trkpt>
      <trkpt lat="43.18525" lon="6.49995">
        <ele>441</ele>
        <time>2015-02-08T11:50:46Z</time>
      </trkpt>
      <trkpt lat="43.18496" lon="6.49947">
        <ele>443</ele>
        <time>2015-02-08T11:51:41Z</time>
      </trkpt>
      <trkpt lat="43.18462" lon="6.49905">
        <ele>446</ele>
        <time>2015-02-08T11:52:26Z</time>
      </trkpt>
      <trkpt lat="43.18423" lon="6.49875">
        <ele>449</ele>
        <time>2015-02-08T11:53:15Z</time>
      </trkpt>
      <trkpt lat="43.18437" lon="6.49881">
        <ele>466</ele>
        <time>2015-02-08T12:15:45Z</time>
      </trkpt>
      <trkpt lat="43.18423" lon="6.49861">
        <ele>462</ele>
        <time>2015-02-08T12:48:58Z</time>
      </trkpt>
      <trkpt lat="43.18439" lon="6.49837">
        <ele>461</ele>
        <time>2015-02-08T12:49:18Z</time>
      </trkpt>
      <trkpt lat="43.18459" lon="6.49825">
        <ele>461</ele>
        <time>2015-02-08T12:49:42Z</time>
      </trkpt>
      <trkpt lat="43.18483" lon="6.4983">
        <ele>461</ele>
        <time>2015-02-08T12:50:05Z</time>
      </trkpt>
      <trkpt lat="43.18528" lon="6.49835">
        <ele>460</ele>
        <time>2015-02-08T12:50:52Z</time>
      </trkpt>
      <trkpt lat="43.18551" lon="6.49832">
        <ele>460</ele>
        <time>2015-02-08T12:51:17Z</time>
      </trkpt>
      <trkpt lat="43.18594" lon="6.49852">
        <ele>459</ele>
        <time>2015-02-08T12:52:03Z</time>
      </trkpt>
      <trkpt lat="43.18614" lon="6.49837">
        <ele>459</ele>
        <time>2015-02-08T12:52:23Z</time>
      </trkpt>
      <trkpt lat="43.18637" lon="6.49828">
        <ele>459</ele>
        <time>2015-02-08T12:52:40Z</time>
      </trkpt>
      <trkpt lat="43.18682" lon="6.49821">
        <ele>458</ele>
        <time>2015-02-08T12:53:16Z</time>
      </trkpt>
      <trkpt lat="43.18726" lon="6.49803">
        <ele>457</ele>
        <time>2015-02-08T12:54:16Z</time>
      </trkpt>
      <trkpt lat="43.1877" lon="6.4978">
        <ele>455</ele>
        <time>2015-02-08T12:54:54Z</time>
      </trkpt>
      <trkpt lat="43.18808" lon="6.49745">
        <ele>453</ele>
        <time>2015-02-08T12:55:30Z</time>
      </trkpt>
      <trkpt lat="43.18842" lon="6.49702">
        <ele>453</ele>
        <time>2015-02-08T12:56:08Z</time>
      </trkpt>
      <trkpt lat="43.18878" lon="6.49663">
        <ele>451</ele>
        <time>2015-02-08T12:56:46Z</time>
      </trkpt>
      <trkpt lat="43.18898" lon="6.49646">
        <ele>451</ele>
        <time>2015-02-08T12:57:07Z</time>
      </trkpt>
      <trkpt lat="43.18914" lon="6.49624">
        <ele>449</ele>
        <time>2015-02-08T12:57:49Z</time>
      </trkpt>
      <trkpt lat="43.18927" lon="6.49596">
        <ele>449</ele>
        <time>2015-02-08T12:58:13Z</time>
      </trkpt>
      <trkpt lat="43.18942" lon="6.49574">
        <ele>449</ele>
        <time>2015-02-08T12:58:32Z</time>
      </trkpt>
      <trkpt lat="43.18979" lon="6.49532">
        <ele>447</ele>
        <time>2015-02-08T12:59:14Z</time>
      </trkpt>
      <trkpt lat="43.19006" lon="6.49482">
        <ele>446</ele>
        <time>2015-02-08T12:59:51Z</time>
      </trkpt>
      <trkpt lat="43.19017" lon="6.4942">
        <ele>445</ele>
        <time>2015-02-08T13:00:27Z</time>
      </trkpt>
      <trkpt lat="43.19027" lon="6.49393">
        <ele>444</ele>
        <time>2015-02-08T13:00:46Z</time>
      </trkpt>
      <trkpt lat="43.19058" lon="6.49346">
        <ele>444</ele>
        <time>2015-02-08T13:01:25Z</time>
      </trkpt>
      <trkpt lat="43.1908" lon="6.49356">
        <ele>443</ele>
        <time>2015-02-08T13:01:45Z</time>
      </trkpt>
      <trkpt lat="43.19122" lon="6.49384">
        <ele>443</ele>
        <time>2015-02-08T13:04:13Z</time>
      </trkpt>
      <trkpt lat="43.19138" lon="6.49408">
        <ele>436</ele>
        <time>2015-02-08T13:04:32Z</time>
      </trkpt>
      <trkpt lat="43.19149" lon="6.49435">
        <ele>439</ele>
        <time>2015-02-08T13:04:56Z</time>
      </trkpt>
      <trkpt lat="43.19166" lon="6.49493">
        <ele>440</ele>
        <time>2015-02-08T13:05:37Z</time>
      </trkpt>
      <trkpt lat="43.1917" lon="6.49556">
        <ele>440</ele>
        <time>2015-02-08T13:06:19Z</time>
      </trkpt>
      <trkpt lat="43.19182" lon="6.49583">
        <ele>440</ele>
        <time>2015-02-08T13:06:40Z</time>
      </trkpt>
      <trkpt lat="43.19196" lon="6.49607">
        <ele>441</ele>
        <time>2015-02-08T13:07:05Z</time>
      </trkpt>
      <trkpt lat="43.19219" lon="6.49604">
        <ele>441</ele>
        <time>2015-02-08T13:07:29Z</time>
      </trkpt>
      <trkpt lat="43.19243" lon="6.49606">
        <ele>440</ele>
        <time>2015-02-08T13:07:48Z</time>
      </trkpt>
      <trkpt lat="43.19262" lon="6.49623">
        <ele>421</ele>
        <time>2015-02-08T13:09:37Z</time>
      </trkpt>
      <trkpt lat="43.19282" lon="6.49642">
        <ele>431</ele>
        <time>2015-02-08T13:10:00Z</time>
      </trkpt>
      <trkpt lat="43.19295" lon="6.49668">
        <ele>428</ele>
        <time>2015-02-08T13:10:20Z</time>
      </trkpt>
      <trkpt lat="43.1929" lon="6.49699">
        <ele>427</ele>
        <time>2015-02-08T13:10:41Z</time>
      </trkpt>
      <trkpt lat="43.19284" lon="6.49729">
        <ele>425</ele>
        <time>2015-02-08T13:10:58Z</time>
      </trkpt>
      <trkpt lat="43.19279" lon="6.49759">
        <ele>424</ele>
        <time>2015-02-08T13:11:17Z</time>
      </trkpt>
      <trkpt lat="43.19274" lon="6.49789">
        <ele>424</ele>
        <time>2015-02-08T13:11:42Z</time>
      </trkpt>
      <trkpt lat="43.19293" lon="6.49807">
        <ele>425</ele>
        <time>2015-02-08T13:12:05Z</time>
      </trkpt>
      <trkpt lat="43.19315" lon="6.49818">
        <ele>425</ele>
        <time>2015-02-08T13:12:23Z</time>
      </trkpt>
      <trkpt lat="43.19333" lon="6.49838">
        <ele>425</ele>
        <time>2015-02-08T13:12:38Z</time>
      </trkpt>
      <trkpt lat="43.19362" lon="6.49885">
        <ele>423</ele>
        <time>2015-02-08T13:13:16Z</time>
      </trkpt>
      <trkpt lat="43.19398" lon="6.49926">
        <ele>421</ele>
        <time>2015-02-08T13:13:50Z</time>
      </trkpt>
      <trkpt lat="43.19408" lon="6.49954">
        <ele>419</ele>
        <time>2015-02-08T13:14:07Z</time>
      </trkpt>
      <trkpt lat="43.19413" lon="6.49984">
        <ele>418</ele>
        <time>2015-02-08T13:14:24Z</time>
      </trkpt>
      <trkpt lat="43.19413" lon="6.50015">
        <ele>416</ele>
        <time>2015-02-08T13:14:58Z</time>
      </trkpt>
      <trkpt lat="43.19409" lon="6.50047">
        <ele>414</ele>
        <time>2015-02-08T13:15:20Z</time>
      </trkpt>
      <trkpt lat="43.19415" lon="6.50078">
        <ele>413</ele>
        <time>2015-02-08T13:15:42Z</time>
      </trkpt>
      <trkpt lat="43.19426" lon="6.50105">
        <ele>412</ele>
        <time>2015-02-08T13:16:00Z</time>
      </trkpt>
      <trkpt lat="43.19446" lon="6.50122">
        <ele>412</ele>
        <time>2015-02-08T13:16:24Z</time>
      </trkpt>
      <trkpt lat="43.1949" lon="6.5014">
        <ele>411</ele>
        <time>2015-02-08T13:17:02Z</time>
      </trkpt>
      <trkpt lat="43.19512" lon="6.50146">
        <ele>410</ele>
        <time>2015-02-08T13:17:20Z</time>
      </trkpt>
      <trkpt lat="43.19529" lon="6.50167">
        <ele>409</ele>
        <time>2015-02-08T13:17:38Z</time>
      </trkpt>
      <trkpt lat="43.19533" lon="6.50198">
        <ele>407</ele>
        <time>2015-02-08T13:18:32Z</time>
      </trkpt>
      <trkpt lat="43.19513" lon="6.50215">
        <ele>406</ele>
        <time>2015-02-08T13:18:58Z</time>
      </trkpt>
      <trkpt lat="43.1947" lon="6.50232">
        <ele>404</ele>
        <time>2015-02-08T13:19:34Z</time>
      </trkpt>
      <trkpt lat="43.19424" lon="6.50247">
        <ele>401</ele>
        <time>2015-02-08T13:20:13Z</time>
      </trkpt>
      <trkpt lat="43.19382" lon="6.50268">
        <ele>397</ele>
        <time>2015-02-08T13:20:48Z</time>
      </trkpt>
      <trkpt lat="43.1937" lon="6.50294">
        <ele>397</ele>
        <time>2015-02-08T13:21:09Z</time>
      </trkpt>
      <trkpt lat="43.19364" lon="6.50358">
        <ele>394</ele>
        <time>2015-02-08T13:21:45Z</time>
      </trkpt>
      <trkpt lat="43.19347" lon="6.50417">
        <ele>391</ele>
        <time>2015-02-08T13:22:26Z</time>
      </trkpt>
      <trkpt lat="43.19349" lon="6.5045">
        <ele>388</ele>
        <time>2015-02-08T13:22:44Z</time>
      </trkpt>
      <trkpt lat="43.19339" lon="6.50478">
        <ele>387</ele>
        <time>2015-02-08T13:23:03Z</time>
      </trkpt>
      <trkpt lat="43.19328" lon="6.50505">
        <ele>386</ele>
        <time>2015-02-08T13:23:23Z</time>
      </trkpt>
      <trkpt lat="43.1931" lon="6.50526">
        <ele>385</ele>
        <time>2015-02-08T13:23:40Z</time>
      </trkpt>
      <trkpt lat="43.19307" lon="6.50556">
        <ele>383</ele>
        <time>2015-02-08T13:23:56Z</time>
      </trkpt>
      <trkpt lat="43.19315" lon="6.50586">
        <ele>382</ele>
        <time>2015-02-08T13:24:17Z</time>
      </trkpt>
      <trkpt lat="43.19327" lon="6.50613">
        <ele>364</ele>
        <time>2015-02-08T13:25:29Z</time>
      </trkpt>
      <trkpt lat="43.19322" lon="6.50644">
        <ele>364</ele>
        <time>2015-02-08T13:27:24Z</time>
      </trkpt>
      <trkpt lat="43.19312" lon="6.50672">
        <ele>363</ele>
        <time>2015-02-08T13:27:48Z</time>
      </trkpt>
      <trkpt lat="43.19303" lon="6.50701">
        <ele>365</ele>
        <time>2015-02-08T13:28:11Z</time>
      </trkpt>
      <trkpt lat="43.19299" lon="6.50732">
        <ele>366</ele>
        <time>2015-02-08T13:30:12Z</time>
      </trkpt>
      <trkpt lat="43.19307" lon="6.50761">
        <ele>360</ele>
        <time>2015-02-08T13:31:38Z</time>
      </trkpt>
      <trkpt lat="43.19315" lon="6.50791">
        <ele>361</ele>
        <time>2015-02-08T13:31:59Z</time>
      </trkpt>
      <trkpt lat="43.19333" lon="6.5081">
        <ele>359</ele>
        <time>2015-02-08T13:32:16Z</time>
      </trkpt>
      <trkpt lat="43.19348" lon="6.50833">
        <ele>357</ele>
        <time>2015-02-08T13:32:33Z</time>
      </trkpt>
      <trkpt lat="43.19359" lon="6.50861">
        <ele>358</ele>
        <time>2015-02-08T13:32:51Z</time>
      </trkpt>
      <trkpt lat="43.19367" lon="6.50891">
        <ele>359</ele>
        <time>2015-02-08T13:33:10Z</time>
      </trkpt>
      <trkpt lat="43.19383" lon="6.50914">
        <ele>360</ele>
        <time>2015-02-08T13:33:31Z</time>
      </trkpt>
      <trkpt lat="43.19406" lon="6.5092">
        <ele>360</ele>
        <time>2015-02-08T13:33:46Z</time>
      </trkpt>
      <trkpt lat="43.19428" lon="6.50911">
        <ele>359</ele>
        <time>2015-02-08T13:34:05Z</time>
      </trkpt>
      <trkpt lat="43.19451" lon="6.50907">
        <ele>351</ele>
        <time>2015-02-08T13:35:11Z</time>
      </trkpt>
      <trkpt lat="43.19473" lon="6.50918">
        <ele>349</ele>
        <time>2015-02-08T13:35:30Z</time>
      </trkpt>
      <trkpt lat="43.19483" lon="6.50947">
        <ele>349</ele>
        <time>2015-02-08T13:35:49Z</time>
      </trkpt>
      <trkpt lat="43.19491" lon="6.50977">
        <ele>348</ele>
        <time>2015-02-08T13:36:08Z</time>
      </trkpt>
      <trkpt lat="43.19513" lon="6.50988">
        <ele>347</ele>
        <time>2015-02-08T13:36:26Z</time>
      </trkpt>
      <trkpt lat="43.1956" lon="6.51007">
        <ele>347</ele>
        <time>2015-02-08T13:37:02Z</time>
      </trkpt>
      <trkpt lat="43.19604" lon="6.51029">
        <ele>344</ele>
        <time>2015-02-08T13:37:28Z</time>
      </trkpt>
      <trkpt lat="43.19622" lon="6.51049">
        <ele>331</ele>
        <time>2015-02-08T13:38:41Z</time>
      </trkpt>
      <trkpt lat="43.19635" lon="6.51074">
        <ele>332</ele>
        <time>2015-02-08T13:39:00Z</time>
      </trkpt>
      <trkpt lat="43.19651" lon="6.51096">
        <ele>336</ele>
        <time>2015-02-08T13:39:26Z</time>
      </trkpt>
      <trkpt lat="43.19663" lon="6.51122">
        <ele>335</ele>
        <time>2015-02-08T13:39:49Z</time>
      </trkpt>
      <trkpt lat="43.19681" lon="6.51182">
        <ele>337</ele>
        <time>2015-02-08T13:40:27Z</time>
      </trkpt>
      <trkpt lat="43.19703" lon="6.51194">
        <ele>337</ele>
        <time>2015-02-08T13:41:06Z</time>
      </trkpt>
      <trkpt lat="43.19725" lon="6.51205">
        <ele>339</ele>
        <time>2015-02-08T13:42:05Z</time>
      </trkpt>
      <trkpt lat="43.19748" lon="6.51206">
        <ele>345</ele>
        <time>2015-02-08T13:44:10Z</time>
      </trkpt>
      <trkpt lat="43.19772" lon="6.51207">
        <ele>343</ele>
        <time>2015-02-08T13:44:49Z</time>
      </trkpt>
      <trkpt lat="43.19791" lon="6.51189">
        <ele>346</ele>
        <time>2015-02-08T13:45:09Z</time>
      </trkpt>
      <trkpt lat="43.19827" lon="6.51149">
        <ele>343</ele>
        <time>2015-02-08T13:45:45Z</time>
      </trkpt>
      <trkpt lat="43.19848" lon="6.51133">
        <ele>345</ele>
        <time>2015-02-08T13:46:05Z</time>
      </trkpt>
      <trkpt lat="43.1987" lon="6.51125">
        <ele>345</ele>
        <time>2015-02-08T13:46:35Z</time>
      </trkpt>
      <trkpt lat="43.19893" lon="6.5113">
        <ele>346</ele>
        <time>2015-02-08T13:47:18Z</time>
      </trkpt>
      <trkpt lat="43.1994" lon="6.51146">
        <ele>349</ele>
        <time>2015-02-08T13:48:07Z</time>
      </trkpt>
      <trkpt lat="43.19967" lon="6.51149">
        <ele>351</ele>
        <time>2015-02-08T13:48:34Z</time>
      </trkpt>
      <trkpt lat="43.19989" lon="6.51142">
        <ele>352</ele>
        <time>2015-02-08T13:48:56Z</time>
      </trkpt>
      <trkpt lat="43.20008" lon="6.51125">
        <ele>353</ele>
        <time>2015-02-08T13:49:18Z</time>
      </trkpt>
      <trkpt lat="43.20036" lon="6.51075">
        <ele>355</ele>
        <time>2015-02-08T13:50:05Z</time>
      </trkpt>
      <trkpt lat="43.20052" lon="6.51053">
        <ele>354</ele>
        <time>2015-02-08T13:50:22Z</time>
      </trkpt>
      <trkpt lat="43.20072" lon="6.51041">
        <ele>356</ele>
        <time>2015-02-08T13:50:57Z</time>
      </trkpt>
      <trkpt lat="43.20089" lon="6.51063">
        <ele>357</ele>
        <time>2015-02-08T13:51:15Z</time>
      </trkpt>
      <trkpt lat="43.20095" lon="6.51093">
        <ele>357</ele>
        <time>2015-02-08T13:51:35Z</time>
      </trkpt>
      <trkpt lat="43.20097" lon="6.51124">
        <ele>358</ele>
        <time>2015-02-08T13:51:54Z</time>
      </trkpt>
      <trkpt lat="43.20109" lon="6.51153">
        <ele>358</ele>
        <time>2015-02-08T13:52:13Z</time>
      </trkpt>
      <trkpt lat="43.20136" lon="6.51205">
        <ele>361</ele>
        <time>2015-02-08T13:52:53Z</time>
      </trkpt>
      <trkpt lat="43.2014" lon="6.51235">
        <ele>363</ele>
        <time>2015-02-08T13:53:10Z</time>
      </trkpt>
      <trkpt lat="43.20146" lon="6.51267">
        <ele>363</ele>
        <time>2015-02-08T13:53:34Z</time>
      </trkpt>
      <trkpt lat="43.20164" lon="6.51286">
        <ele>364</ele>
        <time>2015-02-08T13:53:54Z</time>
      </trkpt>
      <trkpt lat="43.20203" lon="6.51306">
        <ele>366</ele>
        <time>2015-02-08T13:54:25Z</time>
      </trkpt>
      <trkpt lat="43.20248" lon="6.51311">
        <ele>368</ele>
        <time>2015-02-08T13:55:00Z</time>
      </trkpt>
      <trkpt lat="43.20271" lon="6.51308">
        <ele>368</ele>
        <time>2015-02-08T13:55:17Z</time>
      </trkpt>
      <trkpt lat="43.20289" lon="6.51289">
        <ele>369</ele>
        <time>2015-02-08T13:55:34Z</time>
      </trkpt>
      <trkpt lat="43.2032" lon="6.51243">
        <ele>370</ele>
        <time>2015-02-08T13:56:06Z</time>
      </trkpt>
      <trkpt lat="43.20338" lon="6.51224">
        <ele>369</ele>
        <time>2015-02-08T13:56:24Z</time>
      </trkpt>
      <trkpt lat="43.20361" lon="6.5121">
        <ele>369</ele>
        <time>2015-02-08T13:56:43Z</time>
      </trkpt>
      <trkpt lat="43.20407" lon="6.51205">
        <ele>368</ele>
        <time>2015-02-08T13:57:19Z</time>
      </trkpt>
      <trkpt lat="43.20429" lon="6.51191">
        <ele>368</ele>
        <time>2015-02-08T13:57:37Z</time>
      </trkpt>
      <trkpt lat="43.20467" lon="6.51154">
        <ele>367</ele>
        <time>2015-02-08T13:58:06Z</time>
      </trkpt>
      <trkpt lat="43.20481" lon="6.51128">
        <ele>367</ele>
        <time>2015-02-08T13:58:24Z</time>
      </trkpt>
      <trkpt lat="43.20497" lon="6.51115">
        <ele>351</ele>
        <time>2015-02-08T14:01:06Z</time>
      </trkpt>
      <trkpt lat="43.20518" lon="6.51131">
        <ele>356</ele>
        <time>2015-02-08T14:01:38Z</time>
      </trkpt>
      <trkpt lat="43.20534" lon="6.51154">
        <ele>358</ele>
        <time>2015-02-08T14:01:59Z</time>
      </trkpt>
      <trkpt lat="43.20541" lon="6.51184">
        <ele>359</ele>
        <time>2015-02-08T14:02:24Z</time>
      </trkpt>
      <trkpt lat="43.20536" lon="6.51215">
        <ele>361</ele>
        <time>2015-02-08T14:02:42Z</time>
      </trkpt>
      <trkpt lat="43.20526" lon="6.51244">
        <ele>361</ele>
        <time>2015-02-08T14:02:57Z</time>
      </trkpt>
      <trkpt lat="43.20511" lon="6.51268">
        <ele>361</ele>
        <time>2015-02-08T14:03:12Z</time>
      </trkpt>
      <trkpt lat="43.20511" lon="6.51301">
        <ele>360</ele>
        <time>2015-02-08T14:03:28Z</time>
      </trkpt>
      <trkpt lat="43.20524" lon="6.51361">
        <ele>359</ele>
        <time>2015-02-08T14:04:01Z</time>
      </trkpt>
      <trkpt lat="43.20524" lon="6.51428">
        <ele>358</ele>
        <time>2015-02-08T14:05:10Z</time>
      </trkpt>
      <trkpt lat="43.20516" lon="6.51471">
        <ele>359</ele>
        <time>2015-02-08T14:05:35Z</time>
      </trkpt>
      <trkpt lat="43.2053" lon="6.51482">
        <ele>358</ele>
        <time>2015-02-08T14:05:43Z</time>
      </trkpt>
      <trkpt lat="43.20576" lon="6.5149">
        <ele>356</ele>
        <time>2015-02-08T14:06:16Z</time>
      </trkpt>
      <trkpt lat="43.20623" lon="6.51501">
        <ele>354</ele>
        <time>2015-02-08T14:06:51Z</time>
      </trkpt>
      <trkpt lat="43.20667" lon="6.51518">
        <ele>352</ele>
        <time>2015-02-08T14:07:30Z</time>
      </trkpt>
      <trkpt lat="43.20689" lon="6.51513">
        <ele>353</ele>
        <time>2015-02-08T14:12:26Z</time>
      </trkpt>
      <trkpt lat="43.20708" lon="6.51487">
        <ele>351</ele>
        <time>2015-02-08T14:12:54Z</time>
      </trkpt>
      <trkpt lat="43.20734" lon="6.51432">
        <ele>339</ele>
        <time>2015-02-08T14:13:44Z</time>
      </trkpt>
      <trkpt lat="43.20757" lon="6.5142">
        <ele>336</ele>
        <time>2015-02-08T14:14:32Z</time>
      </trkpt>
      <trkpt lat="43.20786" lon="6.51417">
        <ele>335</ele>
        <time>2015-02-08T14:15:02Z</time>
      </trkpt>
      <trkpt lat="43.20809" lon="6.51402">
        <ele>331</ele>
        <time>2015-02-08T14:15:34Z</time>
      </trkpt>
      <trkpt lat="43.20826" lon="6.51375">
        <ele>328</ele>
        <time>2015-02-08T14:16:25Z</time>
      </trkpt>
      <trkpt lat="43.20845" lon="6.51357">
        <ele>327</ele>
        <time>2015-02-08T14:17:00Z</time>
      </trkpt>
      <trkpt lat="43.2087" lon="6.51352">
        <ele>325</ele>
        <time>2015-02-08T14:17:43Z</time>
      </trkpt>
      <trkpt lat="43.20893" lon="6.51347">
        <ele>323</ele>
        <time>2015-02-08T14:18:25Z</time>
      </trkpt>
      <trkpt lat="43.20912" lon="6.51321">
        <ele>317</ele>
        <time>2015-02-08T14:19:08Z</time>
      </trkpt>
      <trkpt lat="43.20939" lon="6.51327">
        <ele>319</ele>
        <time>2015-02-08T14:19:48Z</time>
      </trkpt>
      <trkpt lat="43.20984" lon="6.51338">
        <ele>296</ele>
        <time>2015-02-08T14:20:54Z</time>
      </trkpt>
      <trkpt lat="43.2102" lon="6.51376">
        <ele>284</ele>
        <time>2015-02-08T14:21:29Z</time>
      </trkpt>
      <trkpt lat="43.21045" lon="6.51383">
        <ele>272</ele>
        <time>2015-02-08T14:22:25Z</time>
      </trkpt>
      <trkpt lat="43.21064" lon="6.51363">
        <ele>266</ele>
        <time>2015-02-08T14:22:48Z</time>
      </trkpt>
      <trkpt lat="43.21083" lon="6.51345">
        <ele>257</ele>
        <time>2015-02-08T14:23:25Z</time>
      </trkpt>
      <trkpt lat="43.21105" lon="6.51346">
        <ele>249</ele>
        <time>2015-02-08T14:24:15Z</time>
      </trkpt>
      <trkpt lat="43.21133" lon="6.51334">
        <ele>238</ele>
        <time>2015-02-08T14:24:52Z</time>
      </trkpt>
      <trkpt lat="43.21151" lon="6.51357">
        <ele>213</ele>
        <time>2015-02-08T14:26:38Z</time>
      </trkpt>
      <trkpt lat="43.21151" lon="6.51393">
        <ele>228</ele>
        <time>2015-02-08T14:27:35Z</time>
      </trkpt>
      <trkpt lat="43.21145" lon="6.51426">
        <ele>230</ele>
        <time>2015-02-08T14:28:21Z</time>
      </trkpt>
      <trkpt lat="43.21157" lon="6.51459">
        <ele>229</ele>
        <time>2015-02-08T14:29:19Z</time>
      </trkpt>
      <trkpt lat="43.21161" lon="6.51492">
        <ele>227</ele>
        <time>2015-02-08T14:30:18Z</time>
      </trkpt>
      <trkpt lat="43.21164" lon="6.51524">
        <ele>226</ele>
        <time>2015-02-08T14:31:10Z</time>
      </trkpt>
      <trkpt lat="43.21186" lon="6.51516">
        <ele>219</ele>
        <time>2015-02-08T14:32:08Z</time>
      </trkpt>
      <trkpt lat="43.21201" lon="6.51545">
        <ele>218</ele>
        <time>2015-02-08T14:34:03Z</time>
      </trkpt>
      <trkpt lat="43.212" lon="6.51564">
        <ele>198</ele>
        <time>2015-02-08T14:34:23Z</time>
      </trkpt>
      <trkpt lat="43.21222" lon="6.51548">
        <ele>204</ele>
        <time>2015-02-08T14:38:02Z</time>
      </trkpt>
      <trkpt lat="43.21245" lon="6.51538">
        <ele>182</ele>
        <time>2015-02-08T14:39:11Z</time>
      </trkpt>
      <trkpt lat="43.2126" lon="6.51514">
        <ele>176</ele>
        <time>2015-02-08T14:39:37Z</time>
      </trkpt>
      <trkpt lat="43.21273" lon="6.51488">
        <ele>188</ele>
        <time>2015-02-08T14:39:59Z</time>
      </trkpt>
      <trkpt lat="43.21291" lon="6.51469">
        <ele>189</ele>
        <time>2015-02-08T14:40:24Z</time>
      </trkpt>
      <trkpt lat="43.21306" lon="6.51442">
        <ele>182</ele>
        <time>2015-02-08T14:40:43Z</time>
      </trkpt>
      <trkpt lat="43.21319" lon="6.51417">
        <ele>183</ele>
        <time>2015-02-08T14:41:15Z</time>
      </trkpt>
      <trkpt lat="43.21339" lon="6.51401">
        <ele>187</ele>
        <time>2015-02-08T14:41:30Z</time>
      </trkpt>
      <trkpt lat="43.21401" lon="6.5137">
        <ele>170</ele>
        <time>2015-02-08T14:42:04Z</time>
      </trkpt>
      <trkpt lat="43.21426" lon="6.51359">
        <ele>168</ele>
        <time>2015-02-08T14:42:36Z</time>
      </trkpt>
      <trkpt lat="43.21474" lon="6.51371">
        <ele>171</ele>
        <time>2015-02-08T14:43:24Z</time>
      </trkpt>
      <trkpt lat="43.21517" lon="6.51385">
        <ele>175</ele>
        <time>2015-02-08T14:43:55Z</time>
      </trkpt>
      <trkpt lat="43.21544" lon="6.51386">
        <ele>175</ele>
        <time>2015-02-08T14:44:24Z</time>
      </trkpt>
      <trkpt lat="43.21563" lon="6.51362">
        <ele>171</ele>
        <time>2015-02-08T14:44:42Z</time>
      </trkpt>
      <trkpt lat="43.21585" lon="6.51365">
        <ele>166</ele>
        <time>2015-02-08T14:44:58Z</time>
      </trkpt>
      <trkpt lat="43.2161" lon="6.51364">
        <ele>160</ele>
        <time>2015-02-08T14:45:29Z</time>
      </trkpt>
      <trkpt lat="43.21632" lon="6.51354">
        <ele>153</ele>
        <time>2015-02-08T14:45:52Z</time>
      </trkpt>
      <trkpt lat="43.21654" lon="6.51344">
        <ele>146</ele>
        <time>2015-02-08T14:46:15Z</time>
      </trkpt>
      <trkpt lat="43.21676" lon="6.51359">
        <ele>141</ele>
        <time>2015-02-08T14:47:05Z</time>
      </trkpt>
      <trkpt lat="43.21694" lon="6.51387">
        <ele>137</ele>
        <time>2015-02-08T14:47:32Z</time>
      </trkpt>
      <trkpt lat="43.21715" lon="6.51398">
        <ele>134</ele>
        <time>2015-02-08T14:47:50Z</time>
      </trkpt>
      <trkpt lat="43.21741" lon="6.51398">
        <ele>130</ele>
        <time>2015-02-08T14:48:21Z</time>
      </trkpt>
      <trkpt lat="43.21785" lon="6.51376">
        <ele>119</ele>
        <time>2015-02-08T14:49:07Z</time>
      </trkpt>
      <trkpt lat="43.2182" lon="6.51416">
        <ele>38</ele>
        <time>2015-02-08T14:50:37Z</time>
      </trkpt>
      <trkpt lat="43.21843" lon="6.51405">
        <ele>43</ele>
        <time>2015-02-08T14:51:02Z</time>
      </trkpt>
      <trkpt lat="43.21862" lon="6.51389">
        <ele>47</ele>
        <time>2015-02-08T14:51:27Z</time>
      </trkpt>
      <trkpt lat="43.21878" lon="6.51362">
        <ele>46</ele>
        <time>2015-02-08T14:52:08Z</time>
      </trkpt>
      <trkpt lat="43.21901" lon="6.51373">
        <ele>44</ele>
        <time>2015-02-08T14:53:02Z</time>
      </trkpt>
      <trkpt lat="43.21925" lon="6.51383">
        <ele>52</ele>
        <time>2015-02-08T14:55:22Z</time>
      </trkpt>
      <trkpt lat="43.21948" lon="6.51387">
        <ele>52</ele>
        <time>2015-02-08T14:55:41Z</time>
      </trkpt>
      <trkpt lat="43.21972" lon="6.51384">
        <ele>49</ele>
        <time>2015-02-08T14:56:06Z</time>
      </trkpt>
      <trkpt lat="43.21984" lon="6.51377">
        <ele>43</ele>
        <time>2015-02-08T14:56:25Z</time>
      </trkpt>
      <trkpt lat="43.21991" lon="6.51346">
        <ele>45</ele>
        <time>2015-02-08T14:57:29Z</time>
      </trkpt>
      <trkpt lat="43.21989" lon="6.51315">
        <ele>33</ele>
        <time>2015-02-08T14:57:55Z</time>
      </trkpt>
      <trkpt lat="43.21994" lon="6.51281">
        <ele>31</ele>
        <time>2015-02-08T14:58:28Z</time>
      </trkpt>
      <trkpt lat="43.22007" lon="6.51254">
        <ele>30</ele>
        <time>2015-02-08T14:58:55Z</time>
      </trkpt>
      <trkpt lat="43.22023" lon="6.51231">
        <ele>29</ele>
        <time>2015-02-08T14:59:27Z</time>
      </trkpt>
      <trkpt lat="43.22043" lon="6.51211">
        <ele>28</ele>
        <time>2015-02-08T14:59:45Z</time>
      </trkpt>
      <trkpt lat="43.22063" lon="6.51195">
        <ele>29</ele>
        <time>2015-02-08T15:00:05Z</time>
      </trkpt>
      <trkpt lat="43.22105" lon="6.51166">
        <ele>27</ele>
        <time>2015-02-08T15:00:56Z</time>
      </trkpt>
      <trkpt lat="43.22146" lon="6.51132">
        <ele>26</ele>
        <time>2015-02-08T15:01:43Z</time>
      </trkpt>
      <trkpt lat="43.22188" lon="6.51097">
        <ele>26</ele>
        <time>2015-02-08T15:02:26Z</time>
      </trkpt>
      <trkpt lat="43.22206" lon="6.51079">
        <ele>24</ele>
        <time>2015-02-08T15:02:46Z</time>
      </trkpt>
      <trkpt lat="43.22245" lon="6.51039">
        <ele>23</ele>
        <time>2015-02-08T15:03:25Z</time>
      </trkpt>
      <trkpt lat="43.22279" lon="6.50995">
        <ele>21</ele>
        <time>2015-02-08T15:04:14Z</time>
      </trkpt>
      <trkpt lat="43.22297" lon="6.50978">
        <ele>20</ele>
        <time>2015-02-08T15:04:52Z</time>
      </trkpt>
      <trkpt lat="43.2232" lon="6.50973">
        <ele>19</ele>
        <time>2015-02-08T15:05:39Z</time>
      </trkpt>
      <trkpt lat="43.22353" lon="6.51015">
        <ele>18</ele>
        <time>2015-02-08T15:06:22Z</time>
      </trkpt>
      <trkpt lat="43.22377" lon="6.51069">
        <ele>15</ele>
        <time>2015-02-08T15:07:04Z</time>
      </trkpt>
      <trkpt lat="43.2241" lon="6.51117">
        <ele>14</ele>
        <time>2015-02-08T15:07:55Z</time>
      </trkpt>
      <trkpt lat="43.22442" lon="6.51164">
        <ele>13</ele>
        <time>2015-02-08T15:08:41Z</time>
      </trkpt>
      <trkpt lat="43.22483" lon="6.51196">
        <ele>13</ele>
        <time>2015-02-08T15:09:26Z</time>
      </trkpt>
      <trkpt lat="43.22525" lon="6.51221">
        <ele>13</ele>
        <time>2015-02-08T15:10:03Z</time>
      </trkpt>
      <trkpt lat="43.22546" lon="6.51234">
        <ele>13</ele>
        <time>2015-02-08T15:10:26Z</time>
      </trkpt>
      <trkpt lat="43.22591" lon="6.51251">
        <ele>14</ele>
        <time>2015-02-08T15:11:09Z</time>
      </trkpt>
      <trkpt lat="43.22615" lon="6.51263">
        <ele>15</ele>
        <time>2015-02-08T15:11:34Z</time>
      </trkpt>
      <trkpt lat="43.2265" lon="6.51303">
        <ele>13</ele>
        <time>2015-02-08T15:11:58Z</time>
      </trkpt>
    </trkseg>
  </trk>
</gpx>